createdAt,value
2022-08-17T00:02:26.756Z,99.90
2022-08-17T00:05:36.054Z,99.90
2022-08-17T00:08:44.603Z,99.90
2022-08-17T00:12:41.471Z,99.90
2022-08-17T00:15:18.282Z,99.90
2022-08-17T00:19:02.079Z,99.90
2022-08-17T00:22:28.738Z,99.90
2022-08-17T00:25:20.738Z,99.90
2022-08-17T00:28:26.280Z,99.90
2022-08-17T00:31:38.450Z,99.90
2022-08-17T00:34:43.654Z,99.90
2022-08-17T00:37:49.020Z,99.90
2022-08-17T00:40:59.195Z,99.90
2022-08-17T00:44:06.581Z,99.90
2022-08-17T00:47:15.149Z,99.90
2022-08-17T00:50:21.293Z,99.90
2022-08-17T00:53:27.248Z,99.90
2022-08-17T00:56:37.992Z,99.90
2022-08-17T01:00:01.599Z,99.90
2022-08-17T01:03:21.933Z,99.90
2022-08-17T01:06:28.325Z,99.90
2022-08-17T01:09:34.709Z,99.90
2022-08-17T01:12:40.100Z,99.90
2022-08-17T01:15:49.922Z,99.90
2022-08-17T01:19:06.738Z,99.90
2022-08-17T01:22:24.906Z,99.90
2022-08-17T01:25:30.873Z,99.90
2022-08-17T01:28:53.414Z,99.90
2022-08-17T01:32:05.687Z,99.90
2022-08-17T01:35:11.820Z,99.90
2022-08-17T01:38:19.760Z,99.90
2022-08-17T01:41:32.409Z,99.90
2022-08-17T01:44:38.156Z,99.90
2022-08-17T01:47:44.010Z,99.90
2022-08-17T01:50:52.426Z,99.90
2022-08-17T01:54:05.409Z,99.90
2022-08-17T01:57:11.819Z,99.90
2022-08-17T02:00:18.353Z,99.90
2022-08-17T02:03:25.314Z,99.90
2022-08-17T02:06:44.846Z,99.90
2022-08-17T02:09:52.818Z,99.90
2022-08-17T02:12:58.311Z,99.90
2022-08-17T02:16:04.001Z,99.90
2022-08-17T02:19:12.195Z,99.90
2022-08-17T02:22:18.292Z,99.90
2022-08-17T02:25:24.735Z,99.90
2022-08-17T02:28:30.855Z,99.90
2022-08-17T02:31:36.642Z,99.90
2022-08-17T02:34:41.719Z,99.90
2022-08-17T02:37:46.790Z,99.90
2022-08-17T02:40:58.751Z,99.90
2022-08-17T02:44:06.174Z,99.90
2022-08-17T02:47:13.742Z,99.90
2022-08-17T02:50:22.200Z,99.90
2022-08-17T02:53:27.689Z,99.90
2022-08-17T02:56:42.181Z,99.90
2022-08-17T02:59:49.126Z,99.90
2022-08-17T03:02:54.707Z,99.90
2022-08-17T03:05:59.922Z,99.90
2022-08-17T03:09:05.622Z,99.90
2022-08-17T03:12:14.997Z,99.90
2022-08-17T03:15:24.386Z,99.90
2022-08-17T03:18:29.911Z,99.90
2022-08-17T03:21:35.079Z,99.90
2022-08-17T03:24:40.073Z,99.90
2022-08-17T03:27:48.239Z,99.90
2022-08-17T03:30:56.894Z,99.90
2022-08-17T03:34:02.180Z,99.90
2022-08-17T03:37:07.422Z,99.90
2022-08-17T03:40:15.185Z,99.90
2022-08-17T03:43:41.441Z,99.90
2022-08-17T03:47:04.136Z,99.90
2022-08-17T03:50:33.829Z,99.90
2022-08-17T03:54:06.799Z,99.90
2022-08-17T03:57:13.400Z,99.90
2022-08-17T04:00:20.264Z,99.90
2022-08-17T04:03:25.401Z,99.90
2022-08-17T04:06:30.785Z,99.90
2022-08-17T04:09:36.588Z,99.90
2022-08-17T04:12:48.563Z,99.90
2022-08-17T04:15:55.177Z,99.90
2022-08-17T04:19:00.764Z,99.90
2022-08-17T04:22:06.428Z,99.90
2022-08-17T04:25:19.518Z,99.90
2022-08-17T04:28:34.834Z,99.90
2022-08-17T04:31:41.327Z,99.90
2022-08-17T04:34:46.956Z,99.90
2022-08-17T04:37:52.370Z,99.90
2022-08-17T04:41:15.903Z,99.90
2022-08-17T04:44:30.414Z,99.90
2022-08-17T04:47:44.626Z,99.90
2022-08-17T04:50:51.750Z,99.90
2022-08-17T04:54:00.446Z,99.90
2022-08-17T04:57:06.167Z,99.90
2022-08-17T05:00:13.316Z,99.90
2022-08-17T05:03:20.287Z,99.90
2022-08-17T05:06:25.888Z,99.90
2022-08-17T05:09:31.310Z,99.90
2022-08-17T05:12:36.863Z,99.90
2022-08-17T05:15:45.063Z,99.90
2022-08-17T05:18:54.367Z,99.90
2022-08-17T05:21:59.434Z,99.90
2022-08-17T05:25:05.039Z,99.90
2022-08-17T05:28:12.094Z,99.90
2022-08-17T05:31:17.387Z,99.90
2022-08-17T05:34:23.742Z,99.90
2022-08-17T05:37:29.257Z,99.90
2022-08-17T05:40:34.507Z,99.90
2022-08-17T05:43:42.001Z,99.90
2022-08-17T05:46:51.587Z,99.90
2022-08-17T05:49:58.594Z,99.90
2022-08-17T05:53:11.119Z,99.90
2022-08-17T05:56:30.264Z,99.90
2022-08-17T05:59:45.960Z,99.90
2022-08-17T06:03:16.978Z,99.90
2022-08-17T06:06:41.333Z,99.90
2022-08-17T06:09:53.814Z,99.90
2022-08-17T06:13:10.595Z,99.90
2022-08-17T06:16:28.210Z,99.90
2022-08-17T06:19:42.154Z,99.90
2022-08-17T06:22:53.306Z,99.90
2022-08-17T06:26:05.306Z,99.90
2022-08-17T06:29:28.972Z,99.90
2022-08-17T06:32:35.927Z,99.90
2022-08-17T06:35:46.107Z,99.90
2022-08-17T06:39:01.058Z,99.90
2022-08-17T06:43:02.269Z,99.90
2022-08-17T06:45:49.550Z,99.90
2022-08-17T06:49:11.639Z,99.90
2022-08-17T06:52:46.296Z,99.90
2022-08-17T06:55:57.239Z,99.90
2022-08-17T06:59:03.643Z,99.90
2022-08-17T07:02:11.288Z,99.90
2022-08-17T07:05:19.092Z,99.90
2022-08-17T07:08:35.088Z,99.90
2022-08-17T07:11:50.742Z,99.90
2022-08-17T07:15:05.522Z,99.90
2022-08-17T07:18:15.547Z,99.90
2022-08-17T07:21:38.536Z,99.90
2022-08-17T07:24:52.811Z,99.90
2022-08-17T07:28:02.545Z,99.90
2022-08-17T07:31:14.348Z,99.90
2022-08-17T07:34:19.843Z,99.90
2022-08-17T07:37:25.027Z,99.90
2022-08-17T07:40:34.435Z,99.90
2022-08-17T07:43:49.959Z,99.90
2022-08-17T07:47:13.289Z,99.90
2022-08-17T07:50:27.939Z,99.90
2022-08-17T07:53:33.091Z,99.90
2022-08-17T07:56:43.737Z,99.90
2022-08-17T08:00:16.948Z,99.90
2022-08-17T08:03:27.255Z,99.90
2022-08-17T08:06:37.948Z,99.90
2022-08-17T08:09:46.933Z,99.90
2022-08-17T08:13:07.342Z,99.90
2022-08-17T08:16:27.261Z,99.90
2022-08-17T08:19:33.104Z,99.90
2022-08-17T08:22:47.862Z,99.90
2022-08-17T08:26:05.236Z,99.90
2022-08-17T08:29:22.489Z,99.90
2022-08-17T08:32:51.322Z,99.90
2022-08-17T08:36:03.489Z,99.90
2022-08-17T08:39:17.151Z,99.90
2022-08-17T08:42:30.014Z,99.90
2022-08-17T08:45:45.796Z,99.90
2022-08-17T08:49:59.536Z,99.90
2022-08-17T08:53:23.598Z,99.90
2022-08-17T08:56:36.177Z,99.90
2022-08-17T08:59:57.911Z,99.90
2022-08-17T09:03:52.266Z,99.90
2022-08-17T09:07:11.181Z,99.90
2022-08-17T09:10:26.549Z,99.90
2022-08-17T09:13:43.871Z,99.90
2022-08-17T09:16:57.849Z,99.90
2022-08-17T09:20:06.573Z,99.90
2022-08-17T09:23:20.923Z,99.90
2022-08-17T09:26:32.872Z,99.90
2022-08-17T09:29:43.985Z,99.90
2022-08-17T09:32:58.809Z,99.90
2022-08-17T09:36:10.063Z,99.90
2022-08-17T09:39:23.814Z,99.90
2022-08-17T09:42:36.480Z,99.90
2022-08-17T09:45:49.459Z,99.90
2022-08-17T09:49:02.288Z,99.90
2022-08-17T09:52:12.710Z,99.90
2022-08-17T09:55:19.466Z,99.90
2022-08-17T09:58:31.763Z,99.90
2022-08-17T10:01:40.221Z,99.90
2022-08-17T10:04:52.815Z,99.90
2022-08-17T10:08:08.697Z,99.90
2022-08-17T10:11:48.407Z,99.90
2022-08-17T10:15:18.929Z,99.90
2022-08-17T10:18:43.381Z,99.90
2022-08-17T10:22:19.326Z,99.90
2022-08-17T10:25:56.537Z,99.90
2022-08-17T10:29:07.883Z,99.90
2022-08-17T10:32:32.352Z,99.90
2022-08-17T10:35:45.663Z,99.90
2022-08-17T10:39:04.007Z,99.90
2022-08-17T10:42:30.113Z,99.90
2022-08-17T10:46:09.246Z,99.90
2022-08-17T10:49:29.441Z,99.90
2022-08-17T10:52:50.110Z,99.90
2022-08-17T10:56:42.277Z,99.90
2022-08-17T10:59:53.195Z,99.80
2022-08-17T11:03:00.761Z,99.60
2022-08-17T11:06:17.519Z,98.80
2022-08-17T11:09:33.852Z,98.20
2022-08-17T11:12:45.056Z,98.20
2022-08-17T11:16:04.850Z,97.80
2022-08-17T11:20:05.605Z,97.90
2022-08-17T11:23:54.941Z,97.00
2022-08-17T11:27:12.280Z,97.10
2022-08-17T11:30:44.843Z,97.40
2022-08-17T11:33:59.778Z,98.00
2022-08-17T11:37:47.759Z,97.80
2022-08-17T11:41:11.294Z,97.90
2022-08-17T11:44:31.888Z,96.70
2022-08-17T11:48:26.161Z,96.80
2022-08-17T11:51:43.105Z,96.20
2022-08-17T11:54:50.974Z,96.40
2022-08-17T11:58:01.790Z,97.20
2022-08-17T12:01:09.873Z,95.70
2022-08-17T12:04:27.717Z,95.60
2022-08-17T12:07:34.377Z,96.00
2022-08-17T12:10:58.218Z,95.40
2022-08-17T12:14:03.420Z,95.10
2022-08-17T12:17:11.322Z,95.40
2022-08-17T12:20:24.227Z,94.90
2022-08-17T12:23:40.499Z,95.60
2022-08-17T12:26:57.339Z,94.70
2022-08-17T12:30:07.121Z,94.50
2022-08-17T12:33:25.594Z,95.60
2022-08-17T12:36:34.841Z,95.50
2022-08-17T12:39:40.643Z,94.50
2022-08-17T12:42:57.328Z,94.30
2022-08-17T12:46:13.014Z,94.10
2022-08-17T12:49:34.331Z,94.40
2022-08-17T12:52:42.329Z,93.60
2022-08-17T12:55:47.980Z,93.90
2022-08-17T12:58:55.621Z,93.30
2022-08-17T13:02:02.316Z,93.20
2022-08-17T13:05:14.941Z,94.30
2022-08-17T13:08:35.302Z,94.90
2022-08-17T13:11:49.927Z,95.00
2022-08-17T13:14:57.491Z,95.70
2022-08-17T13:18:08.890Z,95.80
2022-08-17T13:21:26.773Z,96.10
2022-08-17T13:24:38.065Z,96.50
2022-08-17T13:27:44.440Z,96.90
2022-08-17T13:30:50.884Z,96.70
2022-08-17T13:34:19.040Z,97.10
2022-08-17T13:37:32.708Z,97.20
2022-08-17T13:40:43.280Z,97.20
2022-08-17T13:43:49.622Z,97.30
2022-08-17T13:46:57.431Z,97.20
2022-08-17T13:50:02.790Z,96.50
2022-08-17T13:53:22.384Z,95.80
2022-08-17T13:56:39.517Z,95.30
2022-08-17T13:59:55.030Z,95.90
2022-08-17T14:03:05.426Z,95.30
2022-08-17T14:06:10.431Z,95.60
2022-08-17T14:09:17.047Z,95.10
2022-08-17T14:12:29.583Z,94.70
2022-08-17T14:15:56.364Z,93.80
2022-08-17T14:19:02.555Z,93.80
2022-08-17T14:22:20.763Z,93.50
2022-08-17T14:25:29.448Z,94.10
2022-08-17T14:28:36.433Z,93.90
2022-08-17T14:31:42.425Z,93.30
2022-08-17T14:34:57.176Z,93.20
2022-08-17T14:38:03.095Z,93.60
2022-08-17T14:41:08.275Z,94.30
2022-08-17T14:44:13.523Z,94.30
2022-08-17T14:47:18.940Z,94.70
2022-08-17T14:50:25.770Z,94.90
2022-08-17T14:53:32.343Z,94.60
2022-08-17T14:56:38.357Z,94.90
2022-08-17T14:59:43.449Z,94.80
2022-08-17T15:02:53.642Z,94.70
2022-08-17T15:06:00.478Z,94.80
2022-08-17T15:09:05.686Z,95.00
2022-08-17T15:12:24.313Z,95.10
2022-08-17T15:15:35.280Z,95.30
2022-08-17T15:18:41.472Z,95.50
2022-08-17T15:21:47.956Z,95.30
2022-08-17T15:24:52.987Z,95.40
2022-08-17T15:27:58.842Z,95.40
2022-08-17T15:31:05.727Z,95.10
2022-08-17T15:34:13.701Z,95.10
2022-08-17T15:37:20.071Z,93.50
2022-08-17T15:40:25.357Z,93.10
2022-08-17T15:43:33.459Z,92.60
2022-08-17T15:46:39.291Z,93.00
2022-08-17T15:49:46.381Z,92.10
2022-08-17T15:52:59.294Z,92.00
2022-08-17T15:56:05.340Z,92.10
2022-08-17T15:59:11.272Z,92.20
2022-08-17T16:03:13.893Z,92.80
2022-08-17T16:05:46.299Z,93.10
2022-08-17T16:08:54.334Z,92.90
2022-08-17T16:12:00.149Z,92.80
2022-08-17T16:15:08.251Z,92.60
2022-08-17T16:18:14.007Z,93.60
2022-08-17T16:21:39.331Z,93.80
2022-08-17T16:24:57.410Z,93.30
2022-08-17T16:28:02.706Z,93.40
2022-08-17T16:31:08.783Z,93.70
2022-08-17T16:34:18.024Z,94.10
2022-08-17T16:37:23.908Z,93.70
2022-08-17T16:40:35.818Z,94.00
2022-08-17T16:43:41.760Z,94.20
2022-08-17T16:46:48.794Z,94.80
2022-08-17T16:49:54.370Z,94.00
2022-08-17T16:53:09.197Z,95.00
2022-08-17T16:56:19.207Z,94.90
2022-08-17T16:59:31.226Z,94.30
2022-08-17T17:02:47.794Z,94.30
2022-08-17T17:06:06.386Z,94.20
2022-08-17T17:09:16.398Z,94.30
2022-08-17T17:12:34.890Z,94.10
2022-08-17T17:15:56.075Z,94.50
2022-08-17T17:19:11.200Z,95.10
2022-08-17T17:22:19.518Z,94.90
2022-08-17T17:25:29.799Z,97.10
2022-08-17T17:28:57.304Z,98.30
2022-08-17T17:32:17.323Z,98.60
2022-08-17T17:35:27.556Z,99.90
2022-08-17T17:38:39.304Z,99.80
2022-08-17T17:41:48.949Z,99.90
2022-08-17T17:45:05.050Z,99.90
2022-08-17T17:48:12.399Z,99.90
2022-08-17T17:52:09.075Z,99.90
2022-08-17T17:55:05.575Z,99.90
2022-08-17T17:58:27.595Z,99.90
2022-08-17T18:01:46.169Z,99.90
2022-08-17T18:05:01.992Z,99.90
2022-08-17T18:08:34.689Z,99.90
2022-08-17T18:12:12.478Z,99.90
2022-08-17T18:15:29.487Z,99.90
2022-08-17T18:18:44.071Z,99.90
2022-08-17T18:21:54.511Z,99.90
2022-08-17T18:24:59.609Z,99.90
2022-08-17T18:28:05.241Z,99.90
2022-08-17T18:31:18.223Z,99.90
2022-08-17T18:34:46.589Z,99.90
2022-08-17T18:37:55.421Z,99.90
2022-08-17T18:41:06.250Z,99.90
2022-08-17T18:44:26.121Z,99.90
2022-08-17T18:47:31.358Z,99.90
2022-08-17T18:50:41.339Z,99.90
2022-08-17T18:53:46.457Z,99.90
2022-08-17T18:56:56.437Z,99.90
2022-08-17T19:00:02.001Z,99.90
2022-08-17T19:03:24.689Z,99.90
2022-08-17T19:06:35.092Z,99.90
2022-08-17T19:09:45.099Z,99.90
2022-08-17T19:13:00.456Z,99.90
2022-08-17T19:16:14.601Z,99.90
2022-08-17T19:19:24.427Z,99.90
2022-08-17T19:22:43.821Z,99.90
2022-08-17T19:25:52.478Z,99.90
2022-08-17T19:29:01.542Z,99.90
2022-08-17T19:32:08.895Z,99.90
2022-08-17T19:35:17.567Z,99.90
2022-08-17T19:38:36.102Z,99.90
2022-08-17T19:41:51.199Z,99.90
2022-08-17T19:45:03.987Z,99.90
2022-08-17T19:48:21.817Z,99.90
2022-08-17T19:51:35.322Z,99.90
2022-08-17T19:54:52.368Z,99.90
2022-08-17T19:58:06.307Z,99.90
2022-08-17T20:01:19.233Z,99.90
2022-08-17T20:04:36.680Z,99.90
2022-08-17T20:07:48.588Z,99.90
2022-08-17T20:10:58.951Z,99.90
2022-08-17T20:14:08.535Z,99.90
2022-08-17T20:17:14.525Z,99.90
2022-08-17T20:20:30.319Z,99.90
2022-08-17T20:23:51.167Z,99.90
2022-08-17T20:27:00.268Z,99.90
2022-08-17T20:30:12.271Z,99.90
2022-08-17T20:33:28.630Z,99.90
2022-08-17T20:36:37.001Z,99.90
2022-08-17T20:39:45.680Z,99.90
2022-08-17T20:42:52.696Z,99.90
2022-08-17T20:46:14.274Z,99.90
2022-08-17T20:49:28.258Z,99.90
2022-08-17T20:52:53.242Z,99.90
2022-08-17T20:55:58.908Z,99.90
2022-08-17T20:59:05.478Z,99.90
2022-08-17T21:02:14.020Z,99.90
2022-08-17T21:05:32.373Z,99.90
2022-08-17T21:08:45.880Z,99.90
2022-08-17T21:12:04.556Z,99.90
2022-08-17T21:15:31.056Z,99.90
2022-08-17T21:18:45.690Z,99.90
2022-08-17T21:22:04.870Z,99.90
2022-08-17T21:25:24.561Z,99.90
2022-08-17T21:28:37.232Z,99.90
2022-08-17T21:32:24.728Z,99.90
2022-08-17T21:35:48.971Z,99.90
2022-08-17T21:39:04.509Z,99.90
2022-08-17T21:42:11.261Z,99.90
2022-08-17T21:45:23.922Z,99.90
2022-08-17T21:48:33.278Z,99.90
2022-08-17T21:51:44.835Z,99.90
2022-08-17T21:54:52.862Z,99.90
2022-08-17T21:58:13.736Z,99.90
2022-08-17T22:01:26.833Z,99.90
2022-08-17T22:04:36.398Z,99.90
2022-08-17T22:07:45.351Z,99.90
2022-08-17T22:10:55.522Z,99.90
2022-08-17T22:14:05.943Z,99.90
2022-08-17T22:17:20.103Z,99.90
2022-08-17T22:20:26.741Z,99.90
2022-08-17T22:23:52.967Z,99.90
2022-08-17T22:27:11.105Z,99.90
2022-08-17T22:30:34.483Z,99.90
2022-08-17T22:33:45.620Z,99.90
2022-08-17T22:37:27.537Z,99.90
2022-08-17T22:40:34.892Z,99.90
2022-08-17T22:43:43.657Z,99.90
2022-08-17T22:47:01.972Z,99.90
2022-08-17T22:50:19.191Z,99.90
2022-08-17T22:53:42.986Z,99.90
2022-08-17T22:57:18.934Z,99.90
2022-08-17T23:00:39.253Z,99.90
2022-08-17T23:03:54.600Z,99.90
2022-08-17T23:07:00.221Z,99.90
2022-08-17T23:10:08.255Z,99.90
2022-08-17T23:13:14.330Z,99.90
2022-08-17T23:16:21.090Z,99.90
2022-08-17T23:19:28.322Z,99.90
2022-08-17T23:22:34.109Z,99.90
2022-08-17T23:25:44.475Z,99.90
2022-08-17T23:28:50.270Z,99.90
2022-08-17T23:31:57.805Z,99.90
2022-08-17T23:35:02.891Z,99.90
2022-08-17T23:38:08.101Z,99.90
2022-08-17T23:41:18.145Z,99.90
2022-08-17T23:44:24.461Z,99.90
2022-08-17T23:47:29.768Z,99.90
2022-08-17T23:50:35.183Z,99.90
2022-08-17T23:53:48.687Z,99.90
2022-08-17T23:56:55.296Z,99.90
